createdAt,value
2023-05-21T00:01:07.891Z,61.10
2023-05-21T00:03:36.142Z,61.04
2023-05-21T00:06:03.933Z,61.00
2023-05-21T00:08:31.078Z,60.99
2023-05-21T00:10:57.945Z,60.89
2023-05-21T00:13:24.736Z,60.90
2023-05-21T00:15:51.631Z,60.88
2023-05-21T00:18:20.406Z,60.73
2023-05-21T00:20:47.659Z,60.70
2023-05-21T00:23:18.548Z,60.70
2023-05-21T00:25:46.730Z,60.68
2023-05-21T00:28:13.452Z,60.49
2023-05-21T00:30:40.266Z,60.44
2023-05-21T00:33:08.125Z,60.36
2023-05-21T00:35:35.119Z,60.30
2023-05-21T00:38:02.211Z,60.11
2023-05-21T00:40:28.860Z,59.97
2023-05-21T00:42:57.264Z,59.88
2023-05-21T00:45:25.695Z,59.73
2023-05-21T00:47:54.835Z,59.72
2023-05-21T00:50:23.595Z,59.23
2023-05-21T00:52:50.580Z,59.30
2023-05-21T00:55:17.337Z,59.25
2023-05-21T00:57:46.053Z,59.13
2023-05-21T01:00:14.779Z,59.17
2023-05-21T01:02:42.177Z,59.03
2023-05-21T01:05:10.142Z,58.96
2023-05-21T01:07:40.107Z,58.98
2023-05-21T01:10:09.006Z,59.02
2023-05-21T01:12:36.076Z,59.02
2023-05-21T01:15:04.146Z,59.09
2023-05-21T01:17:31.843Z,59.14
2023-05-21T01:19:59.782Z,59.20
2023-05-21T01:22:29.234Z,59.18
2023-05-21T01:24:55.970Z,59.26
2023-05-21T01:27:22.989Z,59.16
2023-05-21T01:29:50.361Z,59.15
2023-05-21T01:32:52.615Z,59.24
2023-05-21T01:35:29.731Z,59.23
2023-05-21T01:38:09.580Z,59.27
2023-05-21T01:40:46.809Z,59.20
2023-05-21T01:43:14.619Z,59.18
2023-05-21T01:45:43.781Z,59.19
2023-05-21T01:48:13.101Z,59.14
2023-05-21T01:50:41.444Z,59.22
2023-05-21T01:53:08.125Z,59.30
2023-05-21T01:55:35.963Z,59.27
2023-05-21T01:58:03.243Z,59.23
2023-05-21T02:00:32.677Z,59.31
2023-05-21T02:02:59.747Z,59.36
2023-05-21T02:05:26.802Z,59.18
2023-05-21T02:07:55.074Z,59.01
2023-05-21T02:10:22.291Z,58.89
2023-05-21T02:12:48.865Z,58.74
2023-05-21T02:15:18.026Z,58.61
2023-05-21T02:17:48.215Z,58.48
2023-05-21T02:20:15.619Z,58.32
2023-05-21T02:22:45.438Z,58.46
2023-05-21T02:25:15.851Z,58.50
2023-05-21T02:27:43.559Z,58.46
2023-05-21T02:30:13.220Z,58.53
2023-05-21T02:32:42.833Z,58.55
2023-05-21T02:35:12.962Z,58.60
2023-05-21T02:37:40.827Z,58.63
2023-05-21T02:40:10.252Z,58.65
2023-05-21T02:42:40.080Z,58.69
2023-05-21T02:45:12.314Z,58.77
2023-05-21T02:47:41.365Z,58.84
2023-05-21T02:50:09.549Z,58.95
2023-05-21T02:52:42.330Z,59.05
2023-05-21T02:55:09.772Z,59.14
2023-05-21T02:57:36.493Z,59.20
2023-05-21T03:00:06.208Z,59.22
2023-05-21T03:02:33.301Z,59.14
2023-05-21T03:05:00.765Z,59.11
2023-05-21T03:07:27.486Z,59.12
2023-05-21T03:09:54.186Z,59.21
2023-05-21T03:12:20.960Z,59.20
2023-05-21T03:14:51.277Z,59.23
2023-05-21T03:17:18.959Z,59.07
2023-05-21T03:19:45.664Z,59.01
2023-05-21T03:22:12.499Z,59.12
2023-05-21T03:24:40.066Z,59.16
2023-05-21T03:27:07.419Z,59.09
2023-05-21T03:29:34.662Z,59.10
2023-05-21T03:32:02.541Z,59.12
2023-05-21T03:34:30.316Z,59.27
2023-05-21T03:36:57.025Z,59.30
2023-05-21T03:39:24.023Z,59.34
2023-05-21T03:41:50.809Z,59.38
2023-05-21T03:44:26.003Z,59.49
2023-05-21T03:46:56.977Z,59.51
2023-05-21T03:49:29.681Z,59.56
2023-05-21T03:51:56.983Z,59.57
2023-05-21T03:54:23.879Z,59.60
2023-05-21T03:56:52.261Z,59.67
2023-05-21T03:59:19.117Z,59.69
2023-05-21T04:01:45.922Z,59.87
2023-05-21T04:04:14.398Z,59.99
2023-05-21T04:06:44.506Z,60.00
2023-05-21T04:09:11.843Z,60.04
2023-05-21T04:11:38.658Z,60.10
2023-05-21T04:14:05.349Z,60.11
2023-05-21T04:16:34.822Z,60.14
2023-05-21T04:19:01.804Z,60.11
2023-05-21T04:21:29.590Z,60.02
2023-05-21T04:23:57.602Z,60.02
2023-05-21T04:26:33.988Z,59.97
2023-05-21T04:29:03.729Z,59.90
2023-05-21T04:31:32.282Z,59.81
2023-05-21T04:34:00.368Z,59.77
2023-05-21T04:36:29.114Z,59.67
2023-05-21T04:38:56.174Z,59.67
2023-05-21T04:41:22.929Z,59.56
2023-05-21T04:43:55.013Z,59.50
2023-05-21T04:46:27.044Z,59.40
2023-05-21T04:48:58.142Z,59.33
2023-05-21T04:51:24.951Z,59.15
2023-05-21T04:53:52.007Z,59.11
2023-05-21T04:56:18.813Z,58.93
2023-05-21T04:58:48.085Z,58.77
2023-05-21T05:01:15.772Z,58.46
2023-05-21T05:03:42.499Z,58.47
2023-05-21T05:06:09.186Z,58.43
2023-05-21T05:08:36.248Z,58.18
2023-05-21T05:11:03.329Z,58.08
2023-05-21T05:13:30.068Z,57.94
2023-05-21T05:15:57.573Z,57.77
2023-05-21T05:18:24.295Z,57.45
2023-05-21T05:20:51.033Z,57.38
2023-05-21T05:23:17.719Z,57.23
2023-05-21T05:25:44.594Z,57.06
2023-05-21T05:28:11.349Z,56.91
2023-05-21T05:30:38.172Z,56.68
2023-05-21T05:33:21.368Z,56.37
2023-05-21T05:35:48.109Z,56.14
2023-05-21T05:38:15.148Z,55.98
2023-05-21T05:40:41.902Z,55.49
2023-05-21T05:43:08.826Z,55.40
2023-05-21T05:45:35.779Z,55.49
2023-05-21T05:48:05.172Z,55.22
2023-05-21T05:50:32.035Z,55.04
2023-05-21T05:52:58.742Z,54.64
2023-05-21T05:55:27.015Z,54.49
2023-05-21T05:57:53.892Z,54.23
2023-05-21T06:00:20.674Z,53.75
2023-05-21T06:02:48.555Z,53.55
2023-05-21T06:05:15.489Z,52.98
2023-05-21T06:07:42.603Z,52.60
2023-05-21T06:10:09.884Z,52.51
2023-05-21T06:12:36.773Z,52.16
2023-05-21T06:15:04.963Z,51.57
2023-05-21T06:17:31.910Z,51.68
2023-05-21T06:19:59.063Z,51.22
2023-05-21T06:22:25.904Z,50.75
2023-05-21T06:24:53.387Z,50.16
2023-05-21T06:27:20.639Z,49.34
2023-05-21T06:29:48.070Z,48.14
2023-05-21T06:32:14.797Z,47.77
2023-05-21T06:34:41.622Z,47.06
2023-05-21T06:37:08.267Z,46.64
2023-05-21T06:39:35.064Z,45.76
2023-05-21T06:42:01.916Z,44.67
2023-05-21T06:44:51.359Z,43.33
2023-05-21T06:47:28.167Z,43.53
2023-05-21T06:49:55.435Z,42.29
2023-05-21T06:52:22.082Z,41.85
2023-05-21T06:54:49.190Z,41.30
2023-05-21T06:57:16.248Z,40.07
2023-05-21T06:59:43.078Z,38.63
2023-05-21T07:02:10.017Z,37.86
2023-05-21T07:04:36.926Z,37.28
2023-05-21T07:07:06.414Z,36.90
2023-05-21T07:09:33.082Z,35.48
2023-05-21T07:11:59.717Z,35.40
2023-05-21T07:14:27.027Z,33.76
2023-05-21T07:16:53.761Z,33.95
2023-05-21T07:19:20.525Z,34.59
2023-05-21T07:21:49.822Z,34.76
2023-05-21T07:24:16.766Z,34.46
2023-05-21T07:26:43.372Z,34.12
2023-05-21T07:29:10.517Z,33.83
2023-05-21T07:31:37.815Z,32.35
2023-05-21T07:34:05.719Z,31.68
2023-05-21T07:36:33.708Z,32.31
2023-05-21T07:39:01.082Z,32.16
2023-05-21T07:41:28.159Z,31.37
2023-05-21T07:43:55.560Z,31.09
2023-05-21T07:46:22.647Z,31.14
2023-05-21T07:48:52.583Z,31.31
2023-05-21T07:51:19.252Z,31.02
2023-05-21T07:53:45.942Z,30.99
2023-05-21T07:56:13.562Z,31.11
2023-05-21T07:58:40.712Z,31.11
2023-05-21T08:01:07.883Z,31.06
2023-05-21T08:03:34.715Z,31.17
2023-05-21T08:06:02.147Z,31.06
2023-05-21T08:08:28.832Z,31.06
2023-05-21T08:10:57.115Z,31.54
2023-05-21T08:13:25.898Z,31.58
2023-05-21T08:15:53.739Z,32.15
2023-05-21T08:18:24.467Z,31.62
2023-05-21T08:20:53.451Z,32.08
2023-05-21T08:23:21.167Z,32.71
2023-05-21T08:25:50.952Z,32.69
2023-05-21T08:28:17.632Z,32.91
2023-05-21T08:30:44.326Z,33.44
2023-05-21T08:33:11.156Z,34.18
2023-05-21T08:35:38.799Z,34.58
2023-05-21T08:38:27.511Z,35.04
2023-05-21T08:41:19.374Z,35.51
2023-05-21T08:43:49.831Z,35.83
2023-05-21T08:46:22.262Z,36.12
2023-05-21T08:48:54.898Z,36.40
2023-05-21T08:51:22.278Z,36.66
2023-05-21T08:53:51.271Z,36.75
2023-05-21T08:56:18.469Z,37.06
2023-05-21T08:58:53.962Z,37.23
2023-05-21T09:01:24.757Z,37.42
2023-05-21T09:04:20.263Z,37.33
2023-05-21T09:06:49.949Z,37.35
2023-05-21T09:09:41.687Z,37.29
2023-05-21T09:12:08.792Z,37.22
2023-05-21T09:14:52.133Z,37.33
2023-05-21T09:17:22.230Z,37.27
2023-05-21T09:20:17.520Z,37.31
2023-05-21T09:22:51.516Z,36.99
2023-05-21T09:25:23.735Z,36.97
2023-05-21T09:27:51.200Z,36.89
2023-05-21T09:30:20.858Z,36.56
2023-05-21T09:32:57.856Z,36.25
2023-05-21T09:35:24.886Z,36.38
2023-05-21T09:37:53.413Z,36.22
2023-05-21T09:40:22.312Z,35.97
2023-05-21T09:42:53.507Z,35.82
2023-05-21T09:45:21.433Z,35.80
2023-05-21T09:47:50.278Z,35.58
2023-05-21T09:50:22.085Z,35.40
2023-05-21T09:52:52.926Z,35.20
2023-05-21T09:55:23.483Z,35.27
2023-05-21T09:57:52.573Z,35.53
2023-05-21T10:00:22.305Z,34.96
2023-05-21T10:02:54.185Z,34.80
2023-05-21T10:05:26.097Z,34.03
2023-05-21T10:07:56.457Z,34.23
2023-05-21T10:10:23.891Z,34.11
2023-05-21T10:13:04.545Z,33.93
2023-05-21T10:15:38.733Z,33.84
2023-05-21T10:18:07.136Z,33.61
2023-05-21T10:20:36.793Z,32.39
2023-05-21T10:23:04.076Z,31.29
2023-05-21T10:25:32.447Z,30.56
2023-05-21T10:27:59.199Z,29.96
2023-05-21T10:30:25.828Z,29.66
2023-05-21T10:32:55.996Z,30.12
2023-05-21T10:35:23.440Z,29.78
2023-05-21T10:37:52.696Z,29.92
2023-05-21T10:40:19.891Z,29.32
2023-05-21T10:43:13.245Z,29.05
2023-05-21T10:46:14.445Z,28.33
2023-05-21T10:49:37.721Z,27.88
2023-05-21T10:52:45.116Z,27.66
2023-05-21T10:55:51.207Z,27.58
2023-05-21T10:58:32.748Z,27.56
2023-05-21T11:01:01.629Z,27.65
2023-05-21T11:03:29.814Z,28.26
2023-05-21T11:05:58.059Z,27.61
2023-05-21T11:08:31.886Z,27.05
2023-05-21T11:10:59.110Z,27.71
2023-05-21T11:13:27.507Z,27.29
2023-05-21T11:16:05.269Z,26.95
2023-05-21T11:18:38.480Z,27.12
2023-05-21T11:21:13.823Z,27.27
2023-05-21T11:24:01.784Z,27.09
2023-05-21T11:26:50.426Z,27.73
2023-05-21T11:29:17.358Z,27.56
2023-05-21T11:31:49.158Z,27.16
2023-05-21T11:34:32.268Z,26.69
2023-05-21T11:37:27.945Z,27.13
2023-05-21T11:39:55.867Z,27.18
2023-05-21T11:42:39.144Z,27.30
2023-05-21T11:45:06.631Z,27.31
2023-05-21T11:47:33.491Z,27.73
2023-05-21T11:50:03.251Z,27.35
2023-05-21T11:52:31.810Z,27.95
2023-05-21T11:54:59.796Z,27.93
2023-05-21T11:57:31.239Z,27.95
2023-05-21T12:00:01.192Z,27.86
2023-05-21T12:02:32.136Z,27.80
2023-05-21T12:05:00.598Z,27.69
2023-05-21T12:07:32.237Z,27.45
2023-05-21T12:10:00.412Z,26.84
2023-05-21T12:12:33.075Z,25.63
2023-05-21T12:15:10.380Z,25.43
2023-05-21T12:17:37.043Z,25.20
2023-05-21T12:20:07.475Z,25.42
2023-05-21T12:22:34.223Z,24.94
2023-05-21T12:25:01.299Z,25.46
2023-05-21T12:27:31.226Z,25.79
2023-05-21T12:29:58.871Z,25.26
2023-05-21T12:32:28.876Z,25.80
2023-05-21T12:34:56.389Z,26.16
2023-05-21T12:37:32.362Z,26.30
2023-05-21T12:40:01.886Z,26.44
2023-05-21T12:42:34.618Z,26.33
2023-05-21T12:45:06.942Z,26.49
2023-05-21T12:47:33.836Z,25.98
2023-05-21T12:50:02.167Z,26.22
2023-05-21T12:52:30.941Z,25.60
2023-05-21T12:54:58.543Z,25.10
2023-05-21T12:57:38.655Z,25.46
2023-05-21T13:00:07.393Z,25.48
2023-05-21T13:02:38.830Z,25.68
2023-05-21T13:05:11.280Z,24.99
2023-05-21T13:07:39.832Z,25.37
2023-05-21T13:10:07.705Z,24.91
2023-05-21T13:12:35.071Z,25.16
2023-05-21T13:15:04.335Z,25.14
2023-05-21T13:17:31.021Z,24.76
2023-05-21T13:20:09.638Z,24.54
2023-05-21T13:22:47.846Z,24.93
2023-05-21T13:25:21.171Z,24.94
2023-05-21T13:27:50.913Z,24.26
2023-05-21T13:30:18.935Z,23.81
2023-05-21T13:32:46.545Z,23.51
2023-05-21T13:35:16.613Z,23.84
2023-05-21T13:37:43.627Z,23.54
2023-05-21T13:40:12.239Z,23.64
2023-05-21T13:42:39.202Z,23.53
2023-05-21T13:45:11.559Z,23.03
2023-05-21T13:47:40.440Z,23.66
2023-05-21T13:50:09.721Z,24.17
2023-05-21T13:52:38.084Z,24.02
2023-05-21T13:55:05.483Z,24.10
2023-05-21T13:57:32.286Z,24.04
2023-05-21T13:59:59.614Z,24.24
2023-05-21T14:02:26.581Z,24.64
2023-05-21T14:04:53.862Z,24.80
2023-05-21T14:07:21.474Z,25.00
2023-05-21T14:09:48.251Z,25.05
2023-05-21T14:12:14.924Z,25.39
2023-05-21T14:14:42.055Z,25.53
2023-05-21T14:17:08.948Z,25.46
2023-05-21T14:19:35.801Z,25.70
2023-05-21T14:22:02.501Z,25.72
2023-05-21T14:24:29.173Z,25.69
2023-05-21T14:26:55.848Z,25.86
2023-05-21T14:29:22.914Z,26.50
2023-05-21T14:31:49.580Z,27.26
2023-05-21T14:34:16.186Z,27.42
2023-05-21T14:36:43.022Z,27.36
2023-05-21T14:39:09.631Z,27.25
2023-05-21T14:41:39.733Z,26.97
2023-05-21T14:44:06.549Z,27.02
2023-05-21T14:46:33.279Z,26.89
2023-05-21T14:49:00.723Z,26.94
2023-05-21T14:51:27.544Z,27.19
2023-05-21T14:53:54.351Z,27.65
2023-05-21T14:56:22.175Z,27.89
2023-05-21T14:58:49.352Z,27.70
2023-05-21T15:01:16.241Z,27.64
2023-05-21T15:03:42.967Z,27.32
2023-05-21T15:06:09.753Z,27.09
2023-05-21T15:08:36.421Z,27.66
2023-05-21T15:11:03.088Z,28.06
2023-05-21T15:13:29.658Z,28.27
2023-05-21T15:15:56.536Z,28.25
2023-05-21T15:18:24.716Z,28.34
2023-05-21T15:20:51.573Z,28.11
2023-05-21T15:23:18.482Z,28.33
2023-05-21T15:25:46.079Z,28.90
2023-05-21T15:28:13.079Z,29.61
2023-05-21T15:30:40.434Z,30.03
2023-05-21T15:33:07.109Z,30.23
2023-05-21T15:35:35.813Z,30.04
2023-05-21T15:38:02.978Z,29.85
2023-05-21T15:40:29.695Z,29.77
2023-05-21T15:42:56.410Z,29.46
2023-05-21T15:45:24.071Z,29.89
2023-05-21T15:47:50.995Z,29.94
2023-05-21T15:50:17.750Z,29.59
2023-05-21T15:52:44.392Z,29.87
2023-05-21T15:55:11.075Z,29.89
2023-05-21T15:57:37.832Z,29.80
2023-05-21T16:00:05.159Z,29.90
2023-05-21T16:02:35.611Z,29.87
2023-05-21T16:05:02.640Z,29.71
2023-05-21T16:07:29.443Z,29.81
2023-05-21T16:09:56.039Z,29.88
2023-05-21T16:12:22.815Z,29.99
2023-05-21T16:14:52.306Z,30.04
2023-05-21T16:17:22.185Z,30.10
2023-05-21T16:19:48.815Z,29.95
2023-05-21T16:22:15.602Z,29.77
2023-05-21T16:24:42.258Z,29.92
2023-05-21T16:27:08.957Z,30.02
2023-05-21T16:29:35.733Z,30.10
2023-05-21T16:32:02.949Z,30.25
2023-05-21T16:34:29.775Z,30.26
2023-05-21T16:36:56.673Z,30.19
2023-05-21T16:39:23.343Z,30.18
2023-05-21T16:41:50.055Z,30.36
2023-05-21T16:44:16.796Z,30.46
2023-05-21T16:46:43.421Z,30.49
2023-05-21T16:49:10.121Z,30.66
2023-05-21T16:51:36.817Z,30.69
2023-05-21T16:54:04.840Z,30.68
2023-05-21T16:56:31.660Z,30.81
2023-05-21T16:58:58.454Z,30.93
2023-05-21T17:01:25.483Z,31.09
2023-05-21T17:03:53.135Z,31.23
2023-05-21T17:06:20.021Z,31.30
2023-05-21T17:08:47.267Z,31.30
2023-05-21T17:11:14.092Z,31.20
2023-05-21T17:13:41.124Z,31.13
2023-05-21T17:16:07.844Z,31.23
2023-05-21T17:18:34.547Z,31.19
2023-05-21T17:21:01.124Z,31.10
2023-05-21T17:23:27.743Z,31.21
2023-05-21T17:25:54.342Z,31.28
2023-05-21T17:28:21.001Z,31.48
2023-05-21T17:30:49.684Z,31.51
2023-05-21T17:33:16.954Z,31.63
2023-05-21T17:35:43.942Z,31.94
2023-05-21T17:38:10.696Z,32.30
2023-05-21T17:40:37.484Z,32.96
2023-05-21T17:43:05.035Z,33.32
2023-05-21T17:45:32.250Z,34.11
2023-05-21T17:48:00.342Z,34.39
2023-05-21T17:50:28.149Z,34.71
2023-05-21T17:52:54.953Z,35.32
2023-05-21T17:55:21.632Z,36.36
2023-05-21T17:57:48.321Z,37.11
2023-05-21T18:00:15.201Z,37.69
2023-05-21T18:02:41.830Z,37.92
2023-05-21T18:05:08.601Z,38.46
2023-05-21T18:07:35.816Z,39.44
2023-05-21T18:10:02.409Z,39.69
2023-05-21T18:12:29.055Z,39.99
2023-05-21T18:14:55.733Z,40.47
2023-05-21T18:17:22.442Z,40.65
2023-05-21T18:19:50.909Z,41.11
2023-05-21T18:22:17.658Z,41.39
2023-05-21T18:24:44.393Z,41.76
2023-05-21T18:27:12.379Z,41.97
2023-05-21T18:29:39.092Z,42.50
2023-05-21T18:32:06.369Z,42.81
2023-05-21T18:34:33.184Z,43.24
2023-05-21T18:37:00.463Z,43.81
2023-05-21T18:39:28.063Z,43.97
2023-05-21T18:42:08.871Z,44.27
2023-05-21T18:44:39.940Z,44.53
2023-05-21T18:47:08.023Z,44.76
2023-05-21T18:49:36.127Z,44.89
2023-05-21T18:52:07.757Z,45.52
2023-05-21T18:54:34.426Z,45.45
2023-05-21T18:57:01.117Z,45.76
2023-05-21T18:59:28.795Z,45.93
2023-05-21T19:01:55.689Z,46.28
2023-05-21T19:04:22.676Z,46.47
2023-05-21T19:06:49.408Z,46.82
2023-05-21T19:09:16.859Z,46.87
2023-05-21T19:11:43.551Z,46.99
2023-05-21T19:14:10.237Z,47.12
2023-05-21T19:16:37.040Z,47.32
2023-05-21T19:19:04.457Z,47.61
2023-05-21T19:21:31.533Z,48.05
2023-05-21T19:23:58.920Z,48.07
2023-05-21T19:26:25.627Z,48.31
2023-05-21T19:28:55.493Z,48.48
2023-05-21T19:31:23.230Z,48.57
2023-05-21T19:33:50.647Z,48.80
2023-05-21T19:36:18.494Z,49.18
2023-05-21T19:38:49.546Z,49.13
2023-05-21T19:41:17.616Z,49.21
2023-05-21T19:43:45.458Z,49.54
2023-05-21T19:46:12.216Z,49.88
2023-05-21T19:48:38.903Z,50.22
2023-05-21T19:51:05.720Z,50.72
2023-05-21T19:53:32.282Z,50.84
2023-05-21T19:55:59.035Z,51.02
2023-05-21T19:58:29.430Z,51.31
2023-05-21T20:00:59.336Z,51.45
2023-05-21T20:03:26.725Z,51.66
2023-05-21T20:05:54.595Z,51.95
2023-05-21T20:08:21.749Z,51.97
2023-05-21T20:10:51.452Z,52.08
2023-05-21T20:13:19.667Z,52.17
2023-05-21T20:15:48.092Z,52.32
2023-05-21T20:18:15.500Z,52.46
2023-05-21T20:20:43.149Z,52.61
2023-05-21T20:23:10.033Z,52.76
2023-05-21T20:25:36.773Z,52.99
2023-05-21T20:28:05.108Z,52.87
2023-05-21T20:30:52.423Z,53.18
2023-05-21T20:33:20.352Z,53.11
2023-05-21T20:35:47.103Z,53.17
2023-05-21T20:38:16.063Z,53.27
2023-05-21T20:40:44.188Z,53.34
2023-05-21T20:43:12.128Z,53.42
2023-05-21T20:45:42.019Z,53.50
2023-05-21T20:48:09.947Z,53.57
2023-05-21T20:50:37.272Z,53.83
2023-05-21T20:53:04.377Z,53.78
2023-05-21T20:55:35.010Z,53.81
2023-05-21T20:58:03.680Z,54.00
2023-05-21T21:00:31.839Z,54.06
2023-05-21T21:03:01.300Z,54.08
2023-05-21T21:05:28.371Z,54.17
2023-05-21T21:07:55.933Z,54.18
2023-05-21T21:10:22.875Z,54.20
2023-05-21T21:12:49.640Z,54.46
2023-05-21T21:15:16.554Z,54.44
2023-05-21T21:17:43.257Z,54.50
2023-05-21T21:20:11.591Z,54.54
2023-05-21T21:22:38.411Z,54.52
2023-05-21T21:25:05.852Z,54.50
2023-05-21T21:27:32.529Z,54.62
2023-05-21T21:29:59.128Z,54.66
2023-05-21T21:32:26.385Z,54.73
2023-05-21T21:34:53.036Z,54.80
2023-05-21T21:37:19.683Z,54.83
2023-05-21T21:39:46.323Z,55.00
2023-05-21T21:42:13.072Z,54.91
2023-05-21T21:44:39.759Z,55.11
2023-05-21T21:47:06.594Z,55.44
2023-05-21T21:49:33.215Z,55.51
2023-05-21T21:51:59.863Z,55.68
2023-05-21T21:54:27.766Z,55.77
2023-05-21T21:56:54.550Z,55.85
2023-05-21T21:59:22.307Z,56.02
2023-05-21T22:01:49.353Z,56.18
2023-05-21T22:04:16.077Z,56.27
2023-05-21T22:06:45.405Z,56.30
2023-05-21T22:09:13.614Z,56.33
2023-05-21T22:11:40.430Z,56.42
2023-05-21T22:14:07.822Z,56.54
2023-05-21T22:16:34.516Z,56.68
2023-05-21T22:19:01.429Z,56.74
2023-05-21T22:21:29.224Z,56.91
2023-05-21T22:23:56.212Z,57.11
2023-05-21T22:26:23.301Z,57.38
2023-05-21T22:28:51.437Z,57.57
2023-05-21T22:31:18.076Z,57.70
2023-05-21T22:33:44.769Z,57.71
2023-05-21T22:36:11.609Z,57.83
2023-05-21T22:38:38.416Z,58.15
2023-05-21T22:41:05.184Z,58.18
2023-05-21T22:43:34.800Z,58.47
2023-05-21T22:46:01.928Z,58.49
2023-05-21T22:48:31.686Z,58.52
2023-05-21T22:50:58.449Z,58.51
2023-05-21T22:53:25.792Z,58.60
2023-05-21T22:55:52.621Z,58.67
2023-05-21T22:58:19.368Z,58.75
2023-05-21T23:00:48.064Z,58.81
2023-05-21T23:03:14.951Z,58.96
2023-05-21T23:05:41.813Z,59.05
2023-05-21T23:08:08.464Z,59.12
2023-05-21T23:10:35.810Z,59.24
2023-05-21T23:13:02.564Z,59.39
2023-05-21T23:15:32.387Z,59.47
2023-05-21T23:18:00.432Z,59.66
2023-05-21T23:20:27.861Z,59.77
2023-05-21T23:22:54.529Z,59.94
2023-05-21T23:25:21.159Z,60.32
2023-05-21T23:27:47.813Z,60.31
2023-05-21T23:30:14.684Z,60.37
2023-05-21T23:32:41.405Z,60.45
2023-05-21T23:35:09.841Z,60.47
2023-05-21T23:37:36.474Z,60.59
2023-05-21T23:40:03.877Z,60.65
2023-05-21T23:42:30.549Z,60.76
2023-05-21T23:44:57.173Z,60.83
2023-05-21T23:47:23.827Z,60.83
2023-05-21T23:49:50.448Z,60.86
2023-05-21T23:52:18.232Z,60.90
2023-05-21T23:54:44.908Z,61.01
2023-05-21T23:57:13.290Z,61.18
2023-05-21T23:59:40.099Z,61.21
